createdAt,value
2023-02-23T00:04:47.978Z,10.45
2023-02-23T00:09:50.727Z,10.50
2023-02-23T00:14:52.219Z,11.57
2023-02-23T00:19:54.617Z,12.57
2023-02-23T00:24:57.403Z,11.20
2023-02-23T00:29:58.811Z,11.75
2023-02-23T00:35:00.251Z,10.88
2023-02-23T00:40:03.849Z,10.88
2023-02-23T00:50:14.903Z,10.55
2023-02-23T00:55:16.439Z,10.57
2023-02-23T01:00:20.293Z,10.80
2023-02-23T01:05:22.596Z,10.18
2023-02-23T01:10:24.334Z,9.38
2023-02-23T01:15:27.539Z,9.65
2023-02-23T01:20:29.014Z,9.88
2023-02-23T01:25:30.562Z,9.85
2023-02-23T01:30:35.129Z,10.40
2023-02-23T01:35:36.747Z,9.70
2023-02-23T01:40:39.205Z,9.13
2023-02-23T01:45:45.910Z,9.57
2023-02-23T01:50:50.392Z,9.25
2023-02-23T01:55:55.559Z,9.18
2023-02-23T02:01:02.432Z,9.63
2023-02-23T02:06:05.492Z,9.95
2023-02-23T02:11:25.685Z,10.20
2023-02-23T02:16:50.365Z,10.52
2023-02-23T02:22:15.981Z,10.13
2023-02-23T02:28:08.950Z,11.20
2023-02-23T02:33:26.566Z,12.45
2023-02-23T02:38:30.932Z,12.80
2023-02-23T02:43:35.642Z,12.30
2023-02-23T02:49:01.503Z,11.85
2023-02-23T02:54:35.136Z,12.57
2023-02-23T03:00:04.629Z,12.30
2023-02-23T03:05:36.729Z,13.57
2023-02-23T03:11:17.024Z,16.00
2023-02-23T03:16:47.315Z,16.90
2023-02-23T03:22:07.512Z,14.75
2023-02-23T03:27:42.111Z,14.10
2023-02-23T03:33:16.178Z,12.10
2023-02-23T03:38:45.459Z,13.35
2023-02-23T03:44:13.466Z,13.93
2023-02-23T03:49:37.389Z,14.00
2023-02-23T03:55:02.447Z,13.88
2023-02-23T04:00:31.523Z,13.43
2023-02-23T04:05:55.774Z,12.23
2023-02-23T04:11:27.873Z,12.05
2023-02-23T04:16:31.850Z,11.32
2023-02-23T04:21:33.423Z,12.40
2023-02-23T04:26:34.922Z,10.77
2023-02-23T04:31:36.413Z,11.27
2023-02-23T04:36:38.062Z,9.93
2023-02-23T04:41:39.452Z,10.35
2023-02-23T04:46:40.867Z,10.93
2023-02-23T04:51:42.277Z,10.80
2023-02-23T04:56:43.666Z,13.95
2023-02-23T05:01:45.151Z,13.57
2023-02-23T05:06:46.599Z,14.75
2023-02-23T05:11:48.037Z,14.65
2023-02-23T05:16:49.719Z,13.73
2023-02-23T05:21:51.250Z,13.43
2023-02-23T05:26:53.757Z,14.48
2023-02-23T05:31:55.244Z,15.80
2023-02-23T05:36:56.831Z,13.45
2023-02-23T05:41:58.232Z,14.70
2023-02-23T05:46:59.889Z,13.95
2023-02-23T05:52:01.319Z,14.55
2023-02-23T05:57:02.752Z,14.05
2023-02-23T06:02:07.117Z,12.45
2023-02-23T06:07:08.509Z,11.95
2023-02-23T06:12:10.017Z,12.73
2023-02-23T06:17:11.504Z,14.20
2023-02-23T06:22:13.139Z,13.45
2023-02-23T06:27:14.562Z,10.02
2023-02-23T06:32:16.141Z,11.95
2023-02-23T06:37:22.151Z,9.63
2023-02-23T06:42:23.629Z,9.43
2023-02-23T06:47:25.530Z,10.50
2023-02-23T06:52:26.918Z,11.25
2023-02-23T06:57:28.400Z,11.27
2023-02-23T07:02:29.972Z,11.32
2023-02-23T07:07:32.821Z,8.93
2023-02-23T07:12:34.270Z,8.77
2023-02-23T07:17:36.348Z,8.52
2023-02-23T07:22:39.829Z,7.80
2023-02-23T07:27:42.167Z,7.88
2023-02-23T07:32:43.647Z,8.60
2023-02-23T07:37:45.169Z,10.63
2023-02-23T07:42:46.590Z,10.45
2023-02-23T07:47:49.219Z,9.15
2023-02-23T07:52:51.339Z,10.48
2023-02-23T07:57:53.076Z,11.63
2023-02-23T08:02:54.534Z,12.82
2023-02-23T08:07:57.746Z,14.18
2023-02-23T08:12:59.999Z,13.43
2023-02-23T08:18:01.470Z,12.02
2023-02-23T08:23:02.942Z,13.57
2023-02-23T08:28:06.713Z,13.55
2023-02-23T08:33:08.225Z,12.95
2023-02-23T08:38:09.646Z,12.52
2023-02-23T08:43:11.073Z,12.40
2023-02-23T08:48:12.722Z,12.23
2023-02-23T08:53:14.194Z,11.32
2023-02-23T08:58:15.906Z,13.38
2023-02-23T09:03:17.741Z,14.57
2023-02-23T09:08:19.810Z,15.07
2023-02-23T09:13:21.247Z,13.57
2023-02-23T09:18:23.969Z,14.75
2023-02-23T09:23:28.303Z,15.38
2023-02-23T09:28:31.161Z,12.63
2023-02-23T09:33:32.831Z,13.05
2023-02-23T09:38:34.548Z,11.73
2023-02-23T09:43:42.373Z,14.48
2023-02-23T09:48:43.941Z,14.50
2023-02-23T09:53:55.225Z,15.93
2023-02-23T09:58:56.798Z,16.40
2023-02-23T10:04:10.915Z,14.80
2023-02-23T10:09:24.521Z,15.80
2023-02-23T10:14:32.195Z,15.63
2023-02-23T10:20:24.837Z,15.15
2023-02-23T10:25:30.666Z,14.82
2023-02-23T10:30:34.391Z,14.82
2023-02-23T10:35:38.167Z,16.00
2023-02-23T10:40:41.207Z,15.25
2023-02-23T10:45:48.820Z,13.98
2023-02-23T10:50:55.138Z,12.32
2023-02-23T10:56:17.606Z,11.75
2023-02-23T11:01:41.826Z,7.35
2023-02-23T11:06:45.775Z,7.60
2023-02-23T11:12:12.094Z,6.97
2023-02-23T11:17:34.796Z,8.13
2023-02-23T11:22:40.621Z,8.40
2023-02-23T11:27:51.215Z,8.32
2023-02-23T11:32:56.333Z,7.47
2023-02-23T11:37:58.095Z,8.40
2023-02-23T11:43:07.152Z,8.50
2023-02-23T11:48:23.146Z,8.80
2023-02-23T11:53:30.365Z,9.00
2023-02-23T11:58:49.660Z,9.43
2023-02-23T12:03:57.154Z,9.57
2023-02-23T12:09:12.939Z,8.90
2023-02-23T12:14:29.440Z,10.20
2023-02-23T12:19:40.893Z,9.15
2023-02-23T12:24:49.832Z,8.88
2023-02-23T12:29:57.430Z,9.77
2023-02-23T12:35:06.026Z,9.73
2023-02-23T12:40:16.531Z,9.00
2023-02-23T12:45:43.116Z,9.93
2023-02-23T12:50:53.059Z,9.88
2023-02-23T12:56:14.697Z,9.98
2023-02-23T13:01:34.536Z,10.23
2023-02-23T13:06:54.422Z,10.07
2023-02-23T13:12:22.053Z,10.40
2023-02-23T13:17:41.094Z,11.13
2023-02-23T13:22:49.414Z,12.10
2023-02-23T13:28:00.060Z,11.10
2023-02-23T13:33:08.202Z,11.05
2023-02-23T13:38:20.134Z,10.75
2023-02-23T13:43:33.535Z,10.13
2023-02-23T13:49:02.140Z,11.20
2023-02-23T13:54:06.537Z,11.25
2023-02-23T13:59:16.365Z,10.65
2023-02-23T14:04:34.084Z,10.98
2023-02-23T14:09:54.432Z,11.10
2023-02-23T14:14:55.975Z,14.57
2023-02-23T14:20:00.281Z,14.98
2023-02-23T14:25:43.943Z,15.30
2023-02-23T14:30:51.008Z,15.82
2023-02-23T14:35:54.365Z,16.95
2023-02-23T14:40:56.086Z,16.40
2023-02-23T14:45:58.945Z,16.83
2023-02-23T14:51:42.294Z,17.08
2023-02-23T14:56:49.684Z,18.00
2023-02-23T15:01:51.919Z,17.98
2023-02-23T15:06:57.494Z,19.00
2023-02-23T15:12:02.893Z,17.92
2023-02-23T15:17:05.312Z,18.95
2023-02-23T15:22:07.425Z,18.42
2023-02-23T15:27:22.655Z,18.05
2023-02-23T15:32:26.245Z,17.30
2023-02-23T15:37:34.861Z,17.00
2023-02-23T15:42:39.707Z,17.17
2023-02-23T15:47:42.711Z,17.55
2023-02-23T15:52:49.103Z,19.15
2023-02-23T15:57:59.478Z,18.40
2023-02-23T16:03:03.042Z,19.52
2023-02-23T16:08:22.820Z,19.58
2023-02-23T16:13:24.636Z,19.38
2023-02-23T16:18:36.515Z,20.58
2023-02-23T16:23:44.542Z,20.27
2023-02-23T16:28:46.670Z,19.92
2023-02-23T16:33:56.707Z,21.08
2023-02-23T16:39:01.598Z,20.52
2023-02-23T16:44:06.000Z,21.92
2023-02-23T16:49:12.085Z,21.05
2023-02-23T16:54:13.550Z,21.00
2023-02-23T16:59:17.681Z,21.65
2023-02-23T17:04:20.789Z,19.75
2023-02-23T17:09:22.281Z,21.55
2023-02-23T17:14:27.987Z,20.30
2023-02-23T17:19:29.492Z,21.20
2023-02-23T17:24:30.925Z,20.25
2023-02-23T17:29:32.554Z,20.33
2023-02-23T17:34:34.146Z,22.83
2023-02-23T17:39:37.324Z,25.90
2023-02-23T17:44:39.078Z,28.13
2023-02-23T17:49:40.503Z,27.33
2023-02-23T17:54:41.925Z,26.90
2023-02-23T17:59:43.638Z,27.75
2023-02-23T18:04:45.322Z,26.42
2023-02-23T18:09:49.928Z,27.75
2023-02-23T18:14:51.517Z,24.83
2023-02-23T18:19:53.068Z,26.05
2023-02-23T18:24:56.141Z,28.13
2023-02-23T18:29:58.707Z,27.60
2023-02-23T18:35:00.150Z,25.95
2023-02-23T18:40:01.609Z,29.20
2023-02-23T18:45:03.594Z,28.73
2023-02-23T18:50:05.533Z,31.37
2023-02-23T18:55:08.769Z,32.93
2023-02-23T19:00:14.772Z,33.58
2023-02-23T19:05:18.486Z,29.65
2023-02-23T19:10:21.625Z,28.08
2023-02-23T19:15:23.229Z,28.15
2023-02-23T19:20:27.005Z,24.92
2023-02-23T19:25:28.872Z,23.80
2023-02-23T19:30:30.333Z,23.83
2023-02-23T19:35:31.888Z,28.55
2023-02-23T19:40:36.797Z,33.05
2023-02-23T19:45:46.013Z,32.58
2023-02-23T19:50:49.600Z,30.95
2023-02-23T19:56:02.103Z,29.10
2023-02-23T20:01:08.758Z,28.77
2023-02-23T20:06:15.642Z,23.92
2023-02-23T20:11:17.160Z,24.45
2023-02-23T20:16:19.491Z,25.13
2023-02-23T20:21:24.862Z,24.27
2023-02-23T20:26:30.512Z,24.65
2023-02-23T20:31:35.422Z,23.95
2023-02-23T20:36:37.216Z,23.38
2023-02-23T20:41:43.918Z,24.15
2023-02-23T20:46:45.472Z,24.73
2023-02-23T20:51:48.467Z,26.95
2023-02-23T20:56:58.889Z,27.58
2023-02-23T21:02:01.531Z,28.98
2023-02-23T21:07:07.774Z,28.10
2023-02-23T21:12:10.325Z,28.20
2023-02-23T21:17:12.096Z,28.40
2023-02-23T21:22:16.316Z,28.52
2023-02-23T21:27:17.816Z,31.38
2023-02-23T21:32:19.747Z,30.20
2023-02-23T21:37:21.536Z,31.73
2023-02-23T21:42:24.079Z,29.10
2023-02-23T21:47:25.777Z,46.15
2023-02-23T21:52:27.450Z,50.72
2023-02-23T21:57:33.393Z,56.08
2023-02-23T22:02:37.482Z,55.95
2023-02-23T22:07:39.281Z,56.92
2023-02-23T22:12:40.734Z,60.92
2023-02-23T22:17:43.452Z,46.33
2023-02-23T22:22:46.126Z,49.30
2023-02-23T22:27:47.864Z,47.20
2023-02-23T22:32:49.653Z,49.95
2023-02-23T22:37:51.178Z,45.90
2023-02-23T22:42:54.475Z,42.15
2023-02-23T22:48:01.306Z,37.90
2023-02-23T22:53:03.609Z,39.75
2023-02-23T22:58:08.895Z,42.08
2023-02-23T23:03:10.317Z,43.50
2023-02-23T23:08:13.348Z,47.25
2023-02-23T23:13:14.783Z,53.38
2023-02-23T23:18:20.623Z,54.78
2023-02-23T23:23:25.908Z,56.30
2023-02-23T23:28:28.474Z,56.70
2023-02-23T23:33:30.455Z,60.08
2023-02-23T23:38:32.815Z,57.92
2023-02-23T23:43:36.848Z,57.40
2023-02-23T23:48:39.162Z,56.63
2023-02-23T23:53:40.560Z,51.30
2023-02-23T23:58:41.950Z,46.58
